Watkinsville, Georgia
Current Conditions -  °F | °C
As of 6:51 PM on Thursday 18 Dec 2014 (Local Time) from KAHN Reporting Station
Broken Clouds Broken Clouds  
Wind Chill: 53°   Ceiling: 4900
Heat Index: 53°   Visibility: 10mi
Dew Point: 31°   Wind: 6mph
Humidity: 43%   Direction: 260°W
Pressure: 30.09"   Gusts: NA
Location:  33.86°N, 83.41°W
Report Text: KAHN 182351Z 26005KT 10SM BKN049 12/M01 A3009 RMK AO2 SLP194 T01171006 10156 20111 53002
Loading
Personal Weather Stations






























Interactive Weather Map New forecast layout! Learn more

10-Day Weather Forecast

Advertisements
Track Severe Weather on mobile